createdAt,value
2023-05-18T00:00:55.670Z,6.75
2023-05-18T00:03:22.816Z,7.53
2023-05-18T00:08:17.288Z,8.48
2023-05-18T00:10:43.956Z,6.45
2023-05-18T00:13:10.633Z,7.72
2023-05-18T00:15:37.283Z,9.32
2023-05-18T00:18:04.032Z,8.25
2023-05-18T00:20:30.829Z,7.68
2023-05-18T00:22:57.580Z,7.53
2023-05-18T00:25:24.255Z,7.03
2023-05-18T00:27:51.981Z,5.30
2023-05-18T00:30:18.926Z,5.50
2023-05-18T00:32:46.025Z,7.85
2023-05-18T00:35:12.798Z,7.43
2023-05-18T00:37:39.490Z,10.40
2023-05-18T00:40:07.017Z,8.32
2023-05-18T00:42:33.862Z,11.15
2023-05-18T00:45:00.830Z,6.05
2023-05-18T00:47:27.681Z,7.57
2023-05-18T00:49:54.607Z,7.65
2023-05-18T00:52:21.998Z,8.10
2023-05-18T00:57:16.333Z,6.25
2023-05-18T00:59:43.449Z,5.28
2023-05-18T01:02:12.177Z,7.93
2023-05-18T01:04:41.372Z,7.60
2023-05-18T01:07:08.307Z,8.75
2023-05-18T01:09:35.204Z,8.85
2023-05-18T01:12:24.942Z,5.78
2023-05-18T01:14:54.577Z,12.02
2023-05-18T01:17:33.579Z,6.35
2023-05-18T01:20:19.316Z,6.97
2023-05-18T01:23:10.424Z,8.15
2023-05-18T01:25:55.078Z,6.90
2023-05-18T01:28:28.522Z,6.60
2023-05-18T01:30:56.770Z,9.52
2023-05-18T01:33:25.215Z,10.15
2023-05-18T01:35:52.526Z,5.60
2023-05-18T01:38:27.522Z,5.28
2023-05-18T01:41:23.622Z,5.68
2023-05-18T01:44:02.835Z,5.25
2023-05-18T01:46:35.270Z,9.02
2023-05-18T01:49:11.924Z,8.98
2023-05-18T01:51:43.673Z,7.38
2023-05-18T01:54:12.114Z,7.38
2023-05-18T01:56:39.902Z,10.68
2023-05-18T01:59:06.763Z,9.95
2023-05-18T02:01:33.797Z,11.02
2023-05-18T02:04:00.733Z,7.88
2023-05-18T02:06:27.562Z,8.07
2023-05-18T02:08:55.474Z,7.72
2023-05-18T02:11:22.107Z,7.88
2023-05-18T02:13:48.750Z,6.80
2023-05-18T02:16:15.524Z,9.45
2023-05-18T02:18:43.101Z,4.82
2023-05-18T02:21:10.140Z,6.75
2023-05-18T02:23:36.830Z,10.57
2023-05-18T02:26:03.629Z,6.32
2023-05-18T02:28:30.590Z,4.45
2023-05-18T02:31:11.949Z,7.03
2023-05-18T02:33:42.480Z,7.85
2023-05-18T02:36:13.118Z,9.57
2023-05-18T02:38:42.703Z,6.95
2023-05-18T02:41:10.629Z,4.18
2023-05-18T02:43:37.292Z,12.75
2023-05-18T02:46:04.773Z,5.35
2023-05-18T02:48:31.525Z,6.93
2023-05-18T02:50:58.961Z,6.20
2023-05-18T02:53:26.882Z,7.72
2023-05-18T02:55:59.338Z,5.80
2023-05-18T02:58:26.056Z,6.53
2023-05-18T03:00:55.350Z,7.90
2023-05-18T03:03:23.947Z,6.72
2023-05-18T03:05:53.724Z,5.13
2023-05-18T03:08:22.842Z,4.13
2023-05-18T03:10:50.530Z,4.95
2023-05-18T03:13:17.254Z,7.07
2023-05-18T03:15:45.631Z,7.90
2023-05-18T03:18:12.791Z,6.22
2023-05-18T03:20:39.638Z,8.45
2023-05-18T03:23:06.523Z,6.13
2023-05-18T03:25:33.196Z,6.28
2023-05-18T03:27:59.867Z,6.32
2023-05-18T03:30:26.560Z,7.05
2023-05-18T03:32:53.385Z,6.57
2023-05-18T03:35:20.047Z,5.30
2023-05-18T03:37:46.695Z,6.47
2023-05-18T03:40:15.740Z,7.57
2023-05-18T03:42:42.906Z,8.07
2023-05-18T03:45:10.757Z,8.98
2023-05-18T03:47:39.000Z,9.75
2023-05-18T03:50:06.668Z,7.93
2023-05-18T03:52:34.338Z,4.45
2023-05-18T03:55:02.164Z,7.88
2023-05-18T03:57:29.612Z,7.55
2023-05-18T04:02:23.126Z,8.50
2023-05-18T04:04:50.011Z,8.80
2023-05-18T04:07:16.946Z,7.55
2023-05-18T04:09:44.479Z,9.45
2023-05-18T04:12:11.819Z,6.80
2023-05-18T04:19:34.979Z,7.88
2023-05-18T04:22:05.561Z,6.18
2023-05-18T04:24:34.543Z,8.95
2023-05-18T04:27:04.705Z,6.25
2023-05-18T04:29:31.444Z,7.63
2023-05-18T04:32:01.338Z,8.15
2023-05-18T04:34:29.665Z,5.75
2023-05-18T04:36:58.797Z,6.80
2023-05-18T04:39:25.969Z,7.68
2023-05-18T04:41:58.239Z,5.97
2023-05-18T04:44:28.937Z,8.30
2023-05-18T04:46:56.355Z,3.50
2023-05-18T04:51:50.789Z,3.88
2023-05-18T04:54:17.606Z,7.15
2023-05-18T04:56:44.225Z,6.68
2023-05-18T04:59:11.084Z,5.05
2023-05-18T05:01:37.895Z,3.67
2023-05-18T05:04:06.346Z,3.78
2023-05-18T05:06:32.979Z,3.53
2023-05-18T05:08:59.644Z,7.00
2023-05-18T05:11:26.502Z,5.32
2023-05-18T05:13:53.261Z,1.98
2023-05-18T05:16:19.971Z,2.72
2023-05-18T05:18:47.495Z,3.92
2023-05-18T05:21:14.256Z,2.53
2023-05-18T05:23:41.466Z,2.22
2023-05-18T05:26:08.163Z,0.85
2023-05-18T05:28:34.880Z,1.30
2023-05-18T05:31:01.657Z,1.30
2023-05-18T05:33:28.383Z,1.15
2023-05-18T05:35:55.096Z,1.73
2023-05-18T05:38:21.787Z,1.95
2023-05-18T05:40:48.436Z,0.88
2023-05-18T05:43:15.129Z,2.25
2023-05-18T05:45:43.672Z,1.35
2023-05-18T05:48:13.451Z,1.88
2023-05-18T05:50:40.556Z,1.33
2023-05-18T05:53:07.217Z,1.02
2023-05-18T05:55:41.291Z,2.45
2023-05-18T05:58:09.266Z,2.20
2023-05-18T06:00:36.808Z,1.25
2023-05-18T06:03:03.833Z,1.20
2023-05-18T06:05:30.774Z,1.38
2023-05-18T06:07:57.850Z,1.00
2023-05-18T06:10:24.658Z,2.03
2023-05-18T06:12:51.378Z,2.85
2023-05-18T06:15:19.156Z,5.88
2023-05-18T06:17:46.155Z,2.90
2023-05-18T06:20:13.809Z,4.50
2023-05-18T06:22:40.608Z,1.30
2023-05-18T06:25:08.474Z,5.63
2023-05-18T06:27:35.180Z,2.13
2023-05-18T06:30:02.073Z,2.72
2023-05-18T06:32:28.815Z,2.25
2023-05-18T06:34:56.576Z,2.28
2023-05-18T06:37:23.398Z,2.80
2023-05-18T06:39:50.059Z,4.13
2023-05-18T06:42:17.503Z,4.28
2023-05-18T06:44:45.192Z,3.38
2023-05-18T06:47:11.843Z,2.70
2023-05-18T06:49:38.620Z,2.88
2023-05-18T06:52:06.817Z,1.92
2023-05-18T06:54:33.435Z,3.88
2023-05-18T06:57:00.198Z,2.63
2023-05-18T06:59:26.893Z,2.33
2023-05-18T07:01:53.594Z,2.30
2023-05-18T07:04:20.308Z,2.17
2023-05-18T07:06:47.009Z,3.63
2023-05-18T07:09:13.676Z,3.17
2023-05-18T07:11:40.550Z,2.90
2023-05-18T07:14:07.264Z,2.25
2023-05-18T07:16:34.431Z,2.15
2023-05-18T07:19:01.157Z,2.42
2023-05-18T07:21:27.977Z,2.85
2023-05-18T07:23:54.596Z,2.40
2023-05-18T07:26:22.663Z,3.58
2023-05-18T07:28:49.796Z,2.10
2023-05-18T07:31:16.796Z,2.78
2023-05-18T07:33:44.685Z,3.17
2023-05-18T07:36:11.593Z,2.28
2023-05-18T07:38:38.226Z,2.58
2023-05-18T07:41:04.961Z,2.40
2023-05-18T07:43:31.720Z,2.20
2023-05-18T07:45:58.430Z,3.60
2023-05-18T07:48:25.071Z,2.30
2023-05-18T07:50:51.751Z,2.80
2023-05-18T07:53:18.699Z,5.57
2023-05-18T07:55:45.808Z,3.15
2023-05-18T07:58:13.517Z,4.38
2023-05-18T08:00:40.211Z,2.17
2023-05-18T08:03:07.081Z,1.60
2023-05-18T08:05:34.034Z,1.60
2023-05-18T08:08:00.786Z,1.88
2023-05-18T08:10:27.496Z,2.42
2023-05-18T08:12:54.184Z,5.43
2023-05-18T08:15:21.014Z,5.22
2023-05-18T08:17:47.790Z,4.70
2023-05-18T08:20:14.463Z,4.22
2023-05-18T08:22:41.216Z,1.80
2023-05-18T08:25:10.212Z,2.33
2023-05-18T08:27:36.950Z,3.00
2023-05-18T08:30:03.871Z,2.40
2023-05-18T08:32:30.609Z,4.30
2023-05-18T08:34:57.451Z,5.28
2023-05-18T08:37:29.474Z,5.10
2023-05-18T08:39:56.632Z,6.35
2023-05-18T08:42:34.793Z,3.10
2023-05-18T08:45:16.068Z,5.45
2023-05-18T08:47:42.947Z,8.25
2023-05-18T08:50:13.761Z,5.97
2023-05-18T08:52:47.423Z,6.18
2023-05-18T08:55:17.764Z,4.68
2023-05-18T08:57:50.562Z,5.93
2023-05-18T09:00:17.565Z,7.28
2023-05-18T09:02:45.191Z,5.47
2023-05-18T09:05:13.528Z,5.03
2023-05-18T09:07:42.380Z,6.38
2023-05-18T09:10:16.516Z,6.10
2023-05-18T09:12:46.432Z,7.82
2023-05-18T09:15:15.910Z,6.07
2023-05-18T09:17:42.670Z,7.57
2023-05-18T09:20:10.373Z,9.90
2023-05-18T09:22:37.298Z,8.68
2023-05-18T09:25:04.387Z,8.63
2023-05-18T09:27:31.377Z,7.75
2023-05-18T09:29:58.862Z,12.57
2023-05-18T09:32:26.578Z,11.77
2023-05-18T09:34:54.049Z,10.23
2023-05-18T09:40:06.302Z,9.52
2023-05-18T09:42:38.111Z,7.78
2023-05-18T09:45:23.877Z,7.70
2023-05-18T09:47:51.539Z,6.07
2023-05-18T09:50:25.367Z,6.85
2023-05-18T09:52:52.291Z,7.30
2023-05-18T09:55:20.351Z,13.02
2023-05-18T09:57:49.786Z,6.75
2023-05-18T10:00:19.367Z,9.25
2023-05-18T10:02:52.988Z,5.93
2023-05-18T10:05:27.854Z,8.52
2023-05-18T10:07:55.497Z,12.82
2023-05-18T10:10:24.239Z,9.05
2023-05-18T10:12:52.063Z,7.82
2023-05-18T10:15:21.910Z,10.70
2023-05-18T10:17:51.219Z,8.93
2023-05-18T10:20:19.517Z,6.28
2023-05-18T10:22:48.637Z,12.90
2023-05-18T10:25:19.945Z,9.43
2023-05-18T10:27:49.547Z,6.43
2023-05-18T10:30:20.180Z,9.23
2023-05-18T10:32:48.081Z,9.85
2023-05-18T10:35:15.277Z,7.90
2023-05-18T10:37:49.269Z,7.38
2023-05-18T10:40:18.091Z,8.63
2023-05-18T10:42:46.517Z,7.47
2023-05-18T10:45:14.174Z,7.75
2023-05-18T10:47:43.918Z,6.97
2023-05-18T10:50:11.110Z,7.47
2023-05-18T10:52:38.287Z,6.45
2023-05-18T10:55:06.925Z,8.90
2023-05-18T10:57:57.131Z,7.60
2023-05-18T11:00:23.983Z,9.20
2023-05-18T11:02:51.942Z,9.40
2023-05-18T11:05:25.812Z,9.98
2023-05-18T11:08:06.492Z,7.32
2023-05-18T11:10:39.885Z,8.65
2023-05-18T11:13:07.637Z,10.50
2023-05-18T11:15:59.295Z,9.73
2023-05-18T11:18:38.496Z,9.02
2023-05-18T11:21:21.270Z,12.02
2023-05-18T11:24:16.276Z,10.63
2023-05-18T11:26:48.145Z,8.23
2023-05-18T11:29:24.100Z,8.25
2023-05-18T11:31:53.268Z,8.13
2023-05-18T11:34:46.461Z,6.63
2023-05-18T11:37:14.958Z,7.90
2023-05-18T11:39:55.411Z,5.35
2023-05-18T11:42:32.319Z,8.40
2023-05-18T11:45:06.704Z,7.43
2023-05-18T11:47:33.775Z,5.18
2023-05-18T11:50:01.019Z,4.72
2023-05-18T11:52:27.745Z,7.65
2023-05-18T11:54:59.024Z,11.48
2023-05-18T11:57:34.444Z,5.93
2023-05-18T12:00:06.442Z,7.68
2023-05-18T12:02:34.518Z,9.45
2023-05-18T12:05:02.536Z,7.55
2023-05-18T12:07:34.435Z,2.78
2023-05-18T12:10:09.122Z,8.35
2023-05-18T12:12:36.305Z,6.50
2023-05-18T12:15:05.919Z,7.97
2023-05-18T12:17:43.197Z,6.32
2023-05-18T12:20:21.165Z,3.03
2023-05-18T12:22:50.472Z,7.82
2023-05-18T12:25:17.467Z,5.55
2023-05-18T12:27:45.511Z,4.10
2023-05-18T12:30:16.785Z,2.45
2023-05-18T12:32:57.315Z,2.63
2023-05-18T12:35:27.959Z,6.25
2023-05-18T12:37:56.136Z,3.05
2023-05-18T12:40:23.421Z,2.17
2023-05-18T12:45:23.813Z,2.17
2023-05-18T12:47:54.780Z,3.80
2023-05-18T12:50:28.508Z,2.28
2023-05-18T12:52:59.282Z,4.65
2023-05-18T12:55:26.683Z,3.15
2023-05-18T13:00:38.099Z,6.05
2023-05-18T13:03:16.862Z,3.05
2023-05-18T13:05:45.926Z,4.20
2023-05-18T13:08:22.294Z,3.08
2023-05-18T13:11:01.278Z,5.13
2023-05-18T13:13:32.656Z,1.92
2023-05-18T13:18:28.983Z,4.78
2023-05-18T13:20:58.212Z,3.78
2023-05-18T13:23:27.955Z,4.00
2023-05-18T13:25:57.388Z,4.15
2023-05-18T13:28:25.085Z,2.03
2023-05-18T13:30:51.835Z,7.55
2023-05-18T13:33:19.367Z,5.03
2023-05-18T13:35:46.817Z,4.32
2023-05-18T13:40:41.703Z,3.22
2023-05-18T13:43:10.901Z,2.15
2023-05-18T13:45:39.352Z,4.93
2023-05-18T13:48:09.489Z,2.90
2023-05-18T13:50:36.896Z,2.17
2023-05-18T13:53:03.640Z,3.65
2023-05-18T13:55:30.707Z,2.78
2023-05-18T13:57:57.915Z,5.68
2023-05-18T14:00:25.088Z,1.90
2023-05-18T14:02:53.321Z,6.60
2023-05-18T14:05:20.206Z,6.30
2023-05-18T14:07:46.984Z,3.13
2023-05-18T14:10:13.920Z,2.45
2023-05-18T14:12:42.631Z,3.47
2023-05-18T14:15:10.669Z,3.65
2023-05-18T14:17:37.673Z,3.58
2023-05-18T14:20:07.365Z,5.28
2023-05-18T14:22:34.503Z,2.05
2023-05-18T14:25:01.270Z,4.95
2023-05-18T14:27:28.753Z,5.47
2023-05-18T14:29:55.613Z,5.20
2023-05-18T14:32:22.385Z,3.42
2023-05-18T14:34:55.499Z,5.18
2023-05-18T14:37:22.229Z,3.42
2023-05-18T14:39:49.017Z,3.47
2023-05-18T14:42:15.826Z,2.67
2023-05-18T14:44:42.498Z,3.75
2023-05-18T14:47:10.609Z,4.65
2023-05-18T14:49:37.808Z,3.17
2023-05-18T14:52:04.772Z,5.00
2023-05-18T14:54:31.442Z,4.15
2023-05-18T14:56:58.159Z,4.93
2023-05-18T14:59:24.842Z,3.83
2023-05-18T15:01:52.405Z,2.72
2023-05-18T15:04:20.219Z,2.78
2023-05-18T15:06:47.195Z,4.00
2023-05-18T15:09:15.088Z,3.60
2023-05-18T15:11:41.832Z,3.53
2023-05-18T15:14:08.507Z,3.85
2023-05-18T15:16:36.005Z,2.90
2023-05-18T15:19:04.547Z,2.65
2023-05-18T15:21:31.497Z,4.78
2023-05-18T15:23:58.229Z,3.55
2023-05-18T15:26:25.052Z,2.90
2023-05-18T15:28:53.139Z,5.45
2023-05-18T15:31:19.945Z,3.80
2023-05-18T15:33:47.029Z,6.57
2023-05-18T15:36:13.829Z,4.78
2023-05-18T15:38:41.111Z,4.50
2023-05-18T15:43:36.643Z,5.30
2023-05-18T15:46:03.482Z,5.32
2023-05-18T15:48:30.767Z,5.30
2023-05-18T15:50:57.439Z,7.47
2023-05-18T15:53:24.183Z,6.60
2023-05-18T15:55:57.546Z,12.40
2023-05-18T15:58:25.604Z,4.85
2023-05-18T16:00:52.558Z,4.90
2023-05-18T16:03:19.563Z,10.55
2023-05-18T16:05:46.359Z,7.50
2023-05-18T16:08:13.155Z,6.22
2023-05-18T16:10:39.829Z,4.20
2023-05-18T16:13:06.509Z,5.35
2023-05-18T16:15:34.803Z,5.97
2023-05-18T16:18:01.861Z,6.82
2023-05-18T16:20:28.969Z,5.05
2023-05-18T16:22:55.839Z,6.05
2023-05-18T16:25:23.556Z,4.80
2023-05-18T16:27:50.739Z,5.90
2023-05-18T16:30:17.630Z,5.07
2023-05-18T16:32:44.602Z,7.35
2023-05-18T16:35:11.588Z,5.05
2023-05-18T16:37:38.875Z,11.48
2023-05-18T16:40:06.860Z,6.97
2023-05-18T16:42:34.099Z,6.85
2023-05-18T16:45:00.956Z,4.15
2023-05-18T16:47:27.766Z,3.47
2023-05-18T16:49:54.718Z,5.43
2023-05-18T16:52:21.673Z,3.97
2023-05-18T16:54:48.419Z,7.65
2023-05-18T16:57:15.276Z,4.85
2023-05-18T16:59:42.731Z,4.40
2023-05-18T17:02:16.306Z,6.63
2023-05-18T17:04:44.899Z,4.80
2023-05-18T17:07:12.612Z,7.43
2023-05-18T17:09:41.696Z,10.48
2023-05-18T17:12:10.735Z,7.32
2023-05-18T17:14:37.882Z,4.57
2023-05-18T17:17:06.064Z,8.27
2023-05-18T17:19:34.936Z,3.95
2023-05-18T17:22:02.867Z,4.10
2023-05-18T17:24:29.535Z,5.30
2023-05-18T17:26:56.316Z,4.00
2023-05-18T17:29:23.153Z,4.47
2023-05-18T17:31:49.853Z,2.78
2023-05-18T17:34:16.593Z,5.18
2023-05-18T17:36:43.420Z,5.70
2023-05-18T17:39:10.115Z,2.65
2023-05-18T17:41:37.144Z,4.13
2023-05-18T17:44:04.166Z,2.70
2023-05-18T17:46:31.230Z,5.05
2023-05-18T17:48:58.006Z,5.15
2023-05-18T17:51:24.745Z,5.03
2023-05-18T17:53:51.707Z,4.97
2023-05-18T17:56:18.573Z,6.32
2023-05-18T17:58:45.486Z,6.15
2023-05-18T18:01:12.361Z,6.22
2023-05-18T18:03:39.348Z,5.05
2023-05-18T18:06:06.949Z,2.63
2023-05-18T18:08:34.048Z,3.25
2023-05-18T18:11:00.892Z,4.95
2023-05-18T18:13:27.777Z,3.97
2023-05-18T18:15:54.616Z,5.07
2023-05-18T18:18:22.215Z,4.40
2023-05-18T18:20:49.160Z,4.65
2023-05-18T18:23:15.929Z,7.38
2023-05-18T18:25:44.196Z,6.22
2023-05-18T18:28:15.162Z,3.60
2023-05-18T18:30:44.490Z,3.05
2023-05-18T18:33:11.824Z,2.97
2023-05-18T18:35:38.647Z,5.07
2023-05-18T18:38:05.519Z,3.28
2023-05-18T18:40:32.665Z,3.75
2023-05-18T18:45:29.068Z,3.92
2023-05-18T18:47:55.911Z,4.32
2023-05-18T18:50:22.652Z,8.32
2023-05-18T18:52:49.337Z,4.13
2023-05-18T18:55:17.122Z,4.05
2023-05-18T18:57:44.408Z,4.13
2023-05-18T19:00:12.089Z,4.80
2023-05-18T19:02:38.983Z,4.05
2023-05-18T19:05:06.301Z,3.13
2023-05-18T19:07:33.576Z,4.32
2023-05-18T19:10:00.401Z,3.88
2023-05-18T19:12:27.349Z,3.90
2023-05-18T19:14:54.070Z,5.45
2023-05-18T19:17:21.245Z,4.43
2023-05-18T19:19:48.041Z,9.50
2023-05-18T19:22:15.102Z,4.72
2023-05-18T19:24:42.245Z,8.25
2023-05-18T19:27:08.969Z,6.43
2023-05-18T19:29:38.639Z,5.85
2023-05-18T19:32:06.551Z,7.15
2023-05-18T19:34:33.381Z,4.78
2023-05-18T19:37:00.006Z,4.28
2023-05-18T19:39:26.680Z,3.92
2023-05-18T19:41:54.325Z,4.95
2023-05-18T19:44:20.978Z,4.47
2023-05-18T19:46:47.826Z,6.25
2023-05-18T19:49:14.499Z,5.57
2023-05-18T19:51:41.172Z,4.43
2023-05-18T19:54:07.836Z,4.35
2023-05-18T19:56:36.184Z,5.70
2023-05-18T19:59:03.063Z,4.13
2023-05-18T20:01:29.906Z,4.50
2023-05-18T20:03:56.991Z,4.35
2023-05-18T20:06:23.790Z,7.78
2023-05-18T20:08:50.530Z,5.70
2023-05-18T20:11:18.758Z,10.00
2023-05-18T20:13:46.199Z,4.22
2023-05-18T20:18:40.625Z,6.10
2023-05-18T20:21:07.388Z,3.85
2023-05-18T20:23:34.143Z,6.05
2023-05-18T20:26:01.106Z,4.25
2023-05-18T20:28:28.806Z,4.25
2023-05-18T20:30:55.534Z,4.38
2023-05-18T20:33:22.734Z,8.73
2023-05-18T20:35:49.681Z,9.43
2023-05-18T20:38:17.023Z,4.75
2023-05-18T20:43:18.049Z,6.47
2023-05-18T20:45:49.294Z,4.43
2023-05-18T20:48:24.420Z,6.57
2023-05-18T20:50:52.149Z,5.95
2023-05-18T20:53:18.996Z,8.60
2023-05-18T20:55:49.954Z,4.40
2023-05-18T20:58:19.926Z,5.05
2023-05-18T21:00:49.687Z,5.57
2023-05-18T21:03:18.442Z,4.80
2023-05-18T21:05:45.186Z,4.38
2023-05-18T21:08:11.834Z,4.13
2023-05-18T21:10:38.617Z,3.40
2023-05-18T21:13:05.258Z,5.85
2023-05-18T21:15:36.553Z,5.10
2023-05-18T21:18:04.059Z,6.32
2023-05-18T21:22:59.614Z,4.78
2023-05-18T21:25:26.327Z,4.90
2023-05-18T21:27:53.032Z,6.15
2023-05-18T21:30:19.761Z,7.53
2023-05-18T21:32:48.310Z,6.68
2023-05-18T21:35:15.573Z,7.50
2023-05-18T21:37:42.338Z,4.45
2023-05-18T21:40:09.394Z,8.48
2023-05-18T21:42:41.308Z,4.43
2023-05-18T21:45:08.414Z,4.40
2023-05-18T21:47:35.153Z,5.78
2023-05-18T21:50:01.827Z,5.57
2023-05-18T21:52:28.512Z,4.57
2023-05-18T21:54:55.157Z,3.65
2023-05-18T21:57:21.958Z,4.70
2023-05-18T21:59:48.584Z,4.75
2023-05-18T22:02:15.427Z,8.25
2023-05-18T22:04:42.270Z,5.43
2023-05-18T22:07:09.067Z,7.00
2023-05-18T22:09:36.499Z,5.32
2023-05-18T22:14:31.077Z,4.72
2023-05-18T22:16:57.862Z,4.72
2023-05-18T22:19:24.668Z,6.03
2023-05-18T22:21:51.416Z,11.57
2023-05-18T22:24:18.120Z,5.15
2023-05-18T22:26:44.794Z,5.35
2023-05-18T22:29:11.590Z,5.40
2023-05-18T22:31:38.326Z,5.35
2023-05-18T22:34:04.994Z,8.98
2023-05-18T22:36:32.394Z,4.15
2023-05-18T22:41:26.258Z,5.07
2023-05-18T22:46:19.667Z,4.80
2023-05-18T22:48:46.454Z,3.88
2023-05-18T22:51:13.113Z,5.10
2023-05-18T22:53:39.818Z,4.68
2023-05-18T22:56:07.184Z,4.70
2023-05-18T23:01:00.569Z,4.32
2023-05-18T23:03:27.162Z,3.95
2023-05-18T23:05:53.960Z,3.15
2023-05-18T23:08:20.724Z,5.30
2023-05-18T23:10:48.165Z,4.63
2023-05-18T23:15:43.214Z,3.53
2023-05-18T23:18:10.297Z,4.93
2023-05-18T23:20:38.701Z,3.88
2023-05-18T23:23:05.580Z,5.20
2023-05-18T23:25:32.319Z,4.03
2023-05-18T23:27:59.035Z,9.20
2023-05-18T23:30:26.117Z,4.03
2023-05-18T23:32:53.359Z,3.55
2023-05-18T23:35:20.535Z,5.82
2023-05-18T23:37:49.166Z,5.18
2023-05-18T23:40:18.268Z,4.28
2023-05-18T23:42:45.530Z,4.20
2023-05-18T23:45:12.971Z,5.40
2023-05-18T23:47:39.992Z,5.88
2023-05-18T23:50:07.369Z,6.13
2023-05-18T23:55:02.918Z,3.17
2023-05-18T23:57:29.959Z,5.65
2023-05-18T23:59:58.164Z,5.07
